Aviation Digital Data Service (ADDS)

Output produced by METARs form (2137 UTC 25 March 2017)
found at http://www.aviationweather.gov/adds/metars/
 
KLNS 252053Z 00000KT 10SM OVC110 23/14 A3013 RMK AO2 SLP204 T02280144 56003
KLNS 251953Z 34005KT 10SM OVC075 23/13 A3014 RMK AO2 SLP203 T02330128
KLNS 251853Z 31009KT 10SM FEW110 24/13 A3014 RMK AO2 SLP205 T02440128
KLNS 251753Z VRB03KT 10SM FEW060 SCT110 24/12 A3014 RMK AO2 SLP206 T02390122 10239 20083 58004
KLNS 251653Z 00000KT 10SM BKN110 21/11 A3015 RMK AO2 SLP209 T02060106
KLNS 251553Z 28003KT 10SM OVC110 19/10 A3016 RMK AO2 SLP211 T01890100
KLNS 251453Z 00000KT 10SM FEW120 16/08 A3016 RMK AO2 SLP211 T01610083 51004
KLNS 251353Z 00000KT 7SM FEW120 12/07 A3015 RMK AO2 SLP211 T01220067
KLNS 251253Z 00000KT 7SM CLR 10/06 A3015 RMK AO2 SLP212 T01000061
KLNS 251153Z 00000KT 6SM HZ CLR 08/04 A3014 RMK AO2 SLP208 T00780044 10083 20056 53010
KLNS 251053Z 00000KT 9SM CLR 08/03 A3013 RMK AO2 SLP204 T00780033
KLNS 250953Z 00000KT 8SM CLR 06/04 A3012 RMK AO2 SLP199 T00610039
KLNS 250853Z AUTO 00000KT 9SM CLR 07/03 A3011 RMK AO2 SLP197 T00720033 55004
KLNS 250753Z AUTO 00000KT 10SM CLR 07/03 A3010 RMK AO2 SLP194 T00720033
KLNS 250653Z AUTO 00000KT 10SM CLR 07/03 A3012 RMK AO2 SLP199 T00720033
KLNS 250553Z AUTO 00000KT 10SM CLR 08/03 A3012 RMK AO2 SLP201 T00780028 10111 20067 58009
KLNS 250453Z AUTO 00000KT 9SM CLR 07/03 A3014 RMK AO2 SLP208 T00720028 401441022
KLNS 250353Z AUTO 12003KT 10SM CLR 08/03 A3015 RMK AO2 SLP210 T00780028
KLNS 250253Z 08004KT 10SM CLR 08/03 A3015 RMK AO2 SLP212 T00780028 53007
KLNS 250153Z 08004KT 10SM CLR 08/03 A3014 RMK AO2 SLP208 T00780028
KLNS 250053Z 10003KT 10SM CLR 07/03 A3013 RMK AO2 SLP205 T00670028
KLNS 242353Z 17006KT 10SM CLR 11/03 A3013 RMK AO2 SLP205 T01110028 10144 20111 56004
KLNS 242253Z 17007KT 10SM CLR 12/03 A3013 RMK AO2 SLP206 T01220033
KLNS 242153Z 18007KT 10SM CLR 14/04 A3013 RMK AO2 SLP204 T01440044
KLNS 242053Z 19010KT 10SM CLR 14/05 A3014 RMK AO2 SLP209 T01440050 56040
KLNS 241953Z 19011KT 10SM CLR 14/05 A3017 RMK AO2 SLP217 T01390050
KLNS 241853Z 22009KT 10SM BKN080 13/04 A3022 RMK AO2 SLP234 T01280039
KLNS 241753Z 20009KT 10SM CLR 11/02 A3026 RMK AO2 SLP251 60000 T01110022 10117 20022 58040
KLNS 241653Z 20011KT 10SM FEW065 09/00 A3030 RMK AO2 SLP264 T00890000
KLNS 241553Z 22010G17KT 10SM SCT049 BKN060 OVC075 06/M01 A3035 RMK AO2 RAE09 SLP279 P0000 T00611011
KLNS 241453Z 20007KT 10SM -RA BKN047 OVC060 05/M02 A3038 RMK AO2 SLP292 P0000 60000 T00501017 58012
KLNS 241353Z 22007KT 10SM -RA BKN080 OVC095 04/M02 A3039 RMK AO2 RAB46 SLP295 P0000 T00441017
KLNS 241253Z 22007KT 10SM CLR 04/M03 A3042 RMK AO2 SLP302 T00391033
KLNS 241153Z 18007KT 10SM CLR 02/M03 A3042 RMK AO2 SLP303 T00221033 10022 21022 55009
KLNS 241053Z 14007KT 10SM CLR M01/M04 A3041 RMK AO2 SLP299 T10061044
KLNS 240953Z 12005KT 10SM CLR M01/M05 A3042 RMK AO2 SLP304 T10111050